Guerrero, Argentina
Current Conditions -  °F | °C
As of 9:00 PM on Thursday 27 Nov 2014 (Local Time) from SASJ Reporting Station
Moderate Rain Moderate Rain  
Wind Chill: 70°   Ceiling: 10000
Heat Index: 70°   Visibility: 6mi
Dew Point: 68°   Wind: 5mph
Humidity: 94%   Direction: 320°NW
Pressure: 30"   Gusts: NA
Location:  24.22°S, 65.4°W
Report Text: SASJ 280000Z 32004KT 9999 RA SCT030 BKN10021/20 Q1016
Loading
Personal Weather Stations






























Interactive Weather Map New forecast layout! Learn more

10-Day Weather Forecast

Advertisements
Track Severe Weather on mobile